Aberdeen, Wielka Brytania

18:58 BST dnia 23-sierpień-2014 (GMT +0100)
Brigde of Don | Change Station
CLOSE
Current Station
Stacja PWS
Location: Aberdeen, SCOTLAND
n.p.m.: 233 ft
Najbliższa stacja pogodowa

Wysokość 233 ft 57.20 °N, 2.13 °W | Updated 4 seconds ago

Partly Cloudy
niewielkie zachmurzenie
53.1 ° F
Odczuwalna 53.1 ° F
Płn.
5.0
Wiatr zmienny Wiatr od PnZd
Gusts 10.0 mph

Dziś
Wysoka -- | Niska -- ° F
--% Prawdop. opadów
Wczoraj
Wysoka -- | Niska -- ° F
Precip. -- cali
5:51 AM 8:30 PM
Zmniejszający się sierp Księżyca, 3% visible
Ciśnienie 29.92 cali
Widzialność 6.2 mil
chmury Niewiele 4500 ft
Punkt rosy 45 ° F
Wilgotność 75%
Opady deszczu 0.05 cali
grubość pokrywy śnieżnej Niedostępne.
UV 1 z 12
Pyłki Niedostępne.
Jakość powietrza Niedostępne.
Flu Activity Niedostępne.
METAR EGPD 231750Z 32010KT 9999 FEW045 11/06 Q1013 NOSIG

More Conditions Fewer Conditions

Ciśnienie 29.92 cali
Widzialność 6.2 mil
chmury Niewiele 4500 ft
Punkt rosy 45 ° F
Wilgotność 75%
Opady deszczu 0.05 cali
grubość pokrywy śnieżnej Niedostępne.
UV 1 z 12
Pyłki Niedostępne.
Jakość powietrza Niedostępne.
Flu Activity Niedostępne.
METAR EGPD 231750Z 32010KT 9999 FEW045 11/06 Q1013 NOSIG

More Conditions Fewer Conditions

10-Day Weather Forecast

Almanac

Astronomia

Aug. 23, 2014 Wschód Zachów
Aktualny czas 05:51 BST 20:30 BST
Zmierzch cywilny 05:08 BST 21:12 BST
Zmierzch żeglarski 04:11 BST 22:09 BST
świt/zmierzch astronomiczny 02:55 BST 23:22 BST
Księżyc 03:44 BST 19:10 BST
całkowite oświetlenie 16h 04m
Długość dnia
14h 38m
Tomorrow will be 4m 41s shorter.
Zmniejszający się sierp Księżyca, 3% of the Moon is Illuminated
Dziś
Zmniejszający się sierp Księżyca
Sierpień 25
Nowy
Wrzesień 2
Pierwsza kwadra
Wrzesień 8
Pełnia Księżyca
Wrzesień 15
Ostatnia kwadra

Dzisiejsze ekstrema

Country Highs Country Lows

Community

WunderPhotos

Upload Photos

1,746,537 zdjęcia zostały przesłane!

WunderBlogs® & News

By Dr. Jeff Masters
Director of Meteorology, Weather Underground
By Kari Strenfel
Meteorologist, Weather Underground
By Christopher C. Burt
Weather Historian, Weather Underground
August 23, 2014
August 23, 2014
August 23, 2014

Nearby

Jakość powietrza

Not available.

Głębokość pokrywy śnieżnej

Not available.

Aktywność sejsmiczna

Miejscowość Distance Mag. Time & Date
No recent earthquake activity has been reported nearby.
Minimum magnitude displayed is 2.5.

Temperatury wody na wybrzeżu

Miejsce Temperatura
Nie znaleziono stacji

Najbliższa stacja pogodowa